createdAt,value
2022-08-27T00:00:46.662Z,100.00
2022-08-27T00:03:13.208Z,100.00
2022-08-27T00:05:40.758Z,100.00
2022-08-27T00:08:09.495Z,100.00
2022-08-27T00:10:36.014Z,100.00
2022-08-27T00:13:02.421Z,100.00
2022-08-27T00:15:29.576Z,100.00
2022-08-27T00:17:56.032Z,100.00
2022-08-27T00:20:25.886Z,100.00
2022-08-27T00:22:53.197Z,100.00
2022-08-27T00:25:20.793Z,100.00
2022-08-27T00:27:47.177Z,100.00
2022-08-27T00:30:16.188Z,100.00
2022-08-27T00:32:43.318Z,100.00
2022-08-27T00:35:10.093Z,100.00
2022-08-27T00:37:36.869Z,100.00
2022-08-27T00:40:09.630Z,100.00
2022-08-27T00:42:36.092Z,100.00
2022-08-27T00:45:05.952Z,100.00
2022-08-27T00:47:40.580Z,100.00
2022-08-27T00:50:14.441Z,100.00
2022-08-27T00:53:03.053Z,100.00
2022-08-27T00:55:37.637Z,100.00
2022-08-27T00:58:16.282Z,100.00
2022-08-27T01:00:44.928Z,100.00
2022-08-27T01:03:12.145Z,100.00
2022-08-27T01:05:39.149Z,100.00
2022-08-27T01:08:13.729Z,100.00
2022-08-27T01:10:41.929Z,100.00
2022-08-27T01:13:10.294Z,100.00
2022-08-27T01:15:41.049Z,100.00
2022-08-27T01:18:12.223Z,100.00
2022-08-27T01:21:04.373Z,100.00
2022-08-27T01:23:52.332Z,100.00
2022-08-27T01:26:18.841Z,100.00
2022-08-27T01:28:45.820Z,100.00
2022-08-27T01:31:13.112Z,100.00
2022-08-27T01:33:39.763Z,100.00
2022-08-27T01:36:06.900Z,100.00
2022-08-27T01:38:34.330Z,100.00
2022-08-27T01:41:01.814Z,100.00
2022-08-27T01:43:29.284Z,100.00
2022-08-27T01:45:55.707Z,100.00
2022-08-27T01:48:22.606Z,100.00
2022-08-27T01:50:50.186Z,100.00
2022-08-27T01:53:23.258Z,100.00
2022-08-27T01:55:51.656Z,100.00
2022-08-27T01:58:21.030Z,100.00
2022-08-27T02:00:51.943Z,100.00
2022-08-27T02:03:22.905Z,100.00
2022-08-27T02:05:49.434Z,100.00
2022-08-27T02:08:17.577Z,100.00
2022-08-27T02:10:45.919Z,100.00
2022-08-27T02:13:13.413Z,100.00
2022-08-27T02:15:41.484Z,100.00
2022-08-27T02:18:09.753Z,100.00
2022-08-27T02:20:36.866Z,100.00
2022-08-27T02:23:04.675Z,100.00
2022-08-27T02:25:31.141Z,100.00
2022-08-27T02:28:00.140Z,100.00
2022-08-27T02:30:28.046Z,100.00
2022-08-27T02:32:54.443Z,100.00
2022-08-27T02:35:24.096Z,100.00
2022-08-27T02:37:51.613Z,100.00
2022-08-27T02:40:21.251Z,100.00
2022-08-27T02:42:47.860Z,100.00
2022-08-27T02:45:16.470Z,100.00
2022-08-27T02:47:43.378Z,100.00
2022-08-27T02:50:11.081Z,100.00
2022-08-27T02:52:37.836Z,100.00
2022-08-27T02:55:05.316Z,100.00
2022-08-27T02:57:36.661Z,100.00
2022-08-27T03:00:06.496Z,100.00
2022-08-27T03:02:33.033Z,100.00
2022-08-27T03:04:59.484Z,100.00
2022-08-27T03:07:25.944Z,100.00
2022-08-27T03:09:52.687Z,100.00
2022-08-27T03:12:19.382Z,100.00
2022-08-27T03:14:49.114Z,100.00
2022-08-27T03:17:34.506Z,100.00
2022-08-27T03:20:02.057Z,100.00
2022-08-27T03:22:28.502Z,100.00
2022-08-27T03:24:56.245Z,100.00
2022-08-27T03:27:22.879Z,100.00
2022-08-27T03:29:49.267Z,100.00
2022-08-27T03:32:15.681Z,100.00
2022-08-27T03:34:42.357Z,100.00
2022-08-27T03:37:08.779Z,100.00
2022-08-27T03:39:35.164Z,100.00
2022-08-27T03:42:01.554Z,100.00
2022-08-27T03:44:27.977Z,100.00
2022-08-27T03:46:55.016Z,100.00
2022-08-27T03:49:22.291Z,100.00
2022-08-27T03:51:52.659Z,100.00
2022-08-27T03:54:19.095Z,100.00
2022-08-27T03:56:45.526Z,100.00
2022-08-27T03:59:11.966Z,100.00
2022-08-27T04:01:38.658Z,100.00
2022-08-27T04:04:05.147Z,100.00
2022-08-27T04:06:33.253Z,100.00
2022-08-27T04:09:00.224Z,100.00
2022-08-27T04:11:29.374Z,100.00
2022-08-27T04:13:56.945Z,100.00
2022-08-27T04:16:23.408Z,100.00
2022-08-27T04:18:49.871Z,100.00
2022-08-27T04:21:16.225Z,100.00
2022-08-27T04:23:43.151Z,100.00
2022-08-27T04:26:11.225Z,100.00
2022-08-27T04:28:39.226Z,100.00
2022-08-27T04:31:12.962Z,100.00
2022-08-27T04:33:51.381Z,100.00
2022-08-27T04:36:18.304Z,100.00
2022-08-27T04:38:44.721Z,100.00
2022-08-27T04:41:21.246Z,100.00
2022-08-27T04:43:56.997Z,100.00
2022-08-27T04:46:30.979Z,100.00
2022-08-27T04:48:59.651Z,100.00
2022-08-27T04:51:28.882Z,100.00
2022-08-27T04:53:56.374Z,100.00
2022-08-27T04:56:26.377Z,100.00
2022-08-27T04:58:53.218Z,100.00
2022-08-27T05:01:23.093Z,100.00
2022-08-27T05:03:49.905Z,100.00
2022-08-27T05:06:17.405Z,100.00
2022-08-27T05:08:44.240Z,100.00
2022-08-27T05:11:14.974Z,100.00
2022-08-27T05:13:42.588Z,100.00
2022-08-27T05:16:12.605Z,100.00
2022-08-27T05:18:41.713Z,100.00
2022-08-27T05:21:24.170Z,100.00
2022-08-27T05:23:51.433Z,100.00
2022-08-27T05:26:18.405Z,100.00
2022-08-27T05:28:47.606Z,100.00
2022-08-27T05:31:15.319Z,100.00
2022-08-27T05:33:43.191Z,100.00
2022-08-27T05:36:20.552Z,100.00
2022-08-27T05:38:49.252Z,100.00
2022-08-27T05:41:19.373Z,100.00
2022-08-27T05:43:49.933Z,100.00
2022-08-27T05:46:20.248Z,100.00
2022-08-27T05:48:48.498Z,100.00
2022-08-27T05:51:16.320Z,100.00
2022-08-27T05:54:02.889Z,100.00
2022-08-27T05:56:34.457Z,100.00
2022-08-27T05:59:19.594Z,100.00
2022-08-27T06:01:49.252Z,100.00
2022-08-27T06:04:17.504Z,100.00
2022-08-27T06:06:45.487Z,100.00
2022-08-27T06:09:15.550Z,100.00
2022-08-27T06:11:42.050Z,100.00
2022-08-27T06:14:12.409Z,100.00
2022-08-27T06:16:40.486Z,100.00
2022-08-27T06:19:08.396Z,100.00
2022-08-27T06:21:35.125Z,100.00
2022-08-27T06:24:01.909Z,100.00
2022-08-27T06:26:28.664Z,100.00
2022-08-27T06:28:55.483Z,100.00
2022-08-27T06:31:27.396Z,100.00
2022-08-27T06:33:58.457Z,100.00
2022-08-27T06:36:30.088Z,100.00
2022-08-27T06:38:57.347Z,100.00
2022-08-27T06:41:26.651Z,100.00
2022-08-27T06:43:54.754Z,100.00
2022-08-27T06:46:23.773Z,100.00
2022-08-27T06:48:54.887Z,100.00
2022-08-27T06:51:26.049Z,100.00
2022-08-27T06:53:54.989Z,100.00
2022-08-27T06:56:22.486Z,100.00
2022-08-27T06:58:53.394Z,100.00
2022-08-27T07:01:24.203Z,100.00
2022-08-27T07:03:50.981Z,100.00
2022-08-27T07:06:18.202Z,100.00
2022-08-27T07:08:53.190Z,100.00
2022-08-27T07:11:20.539Z,100.00
2022-08-27T07:13:48.246Z,100.00
2022-08-27T07:16:17.774Z,100.00
2022-08-27T07:18:44.782Z,100.00
2022-08-27T07:21:12.207Z,100.00
2022-08-27T07:23:42.033Z,100.00
2022-08-27T07:26:11.379Z,100.00
2022-08-27T07:28:39.345Z,100.00
2022-08-27T07:31:09.107Z,100.00
2022-08-27T07:33:37.106Z,100.00
2022-08-27T07:36:05.937Z,100.00
2022-08-27T07:38:33.057Z,100.00
2022-08-27T07:40:59.636Z,100.00
2022-08-27T07:43:44.781Z,100.00
2022-08-27T07:46:11.259Z,100.00
2022-08-27T07:48:37.923Z,100.00
2022-08-27T07:51:08.405Z,100.00
2022-08-27T07:53:34.771Z,100.00
2022-08-27T07:56:05.997Z,100.00
2022-08-27T07:58:32.622Z,100.00
2022-08-27T08:00:59.224Z,100.00
2022-08-27T08:03:25.959Z,100.00
2022-08-27T08:05:53.356Z,100.00
2022-08-27T08:08:21.468Z,100.00
2022-08-27T08:10:48.777Z,100.00
2022-08-27T08:13:16.997Z,100.00
2022-08-27T08:15:46.202Z,100.00
2022-08-27T08:18:13.653Z,100.00
2022-08-27T08:20:57.086Z,100.00
2022-08-27T08:23:24.424Z,100.00
2022-08-27T08:25:50.838Z,100.00
2022-08-27T08:28:17.213Z,100.00
2022-08-27T08:30:47.667Z,100.00
2022-08-27T08:33:14.082Z,100.00
2022-08-27T08:35:41.481Z,100.00
2022-08-27T08:38:08.851Z,100.00
2022-08-27T08:40:56.045Z,100.00
2022-08-27T08:43:40.010Z,100.00
2022-08-27T08:47:01.622Z,100.00
2022-08-27T08:49:45.001Z,100.00
2022-08-27T08:52:30.544Z,100.00
2022-08-27T08:55:29.061Z,100.00
2022-08-27T08:58:12.430Z,100.00
2022-08-27T09:00:42.162Z,100.00
2022-08-27T09:03:12.209Z,100.00
2022-08-27T09:05:43.555Z,100.00
2022-08-27T09:08:41.325Z,100.00
2022-08-27T09:11:22.874Z,100.00
2022-08-27T09:13:57.538Z,100.00
2022-08-27T09:16:24.304Z,100.00
2022-08-27T09:18:52.631Z,100.00
2022-08-27T09:21:51.260Z,100.00
2022-08-27T09:24:52.764Z,100.00
2022-08-27T09:27:21.019Z,100.00
2022-08-27T09:29:53.378Z,100.00
2022-08-27T09:32:31.386Z,100.00
2022-08-27T09:35:00.027Z,100.00
2022-08-27T09:37:33.916Z,100.00
2022-08-27T09:40:23.105Z,100.00
2022-08-27T09:42:57.137Z,100.00
2022-08-27T09:45:27.301Z,100.00
2022-08-27T09:48:03.920Z,100.00
2022-08-27T09:50:59.059Z,100.00
2022-08-27T09:53:57.520Z,100.00
2022-08-27T09:56:26.508Z,100.00
2022-08-27T09:59:00.028Z,100.00
2022-08-27T10:01:29.467Z,100.00
2022-08-27T10:04:14.970Z,100.00
2022-08-27T10:06:47.596Z,100.00
2022-08-27T10:09:47.736Z,100.00
2022-08-27T10:12:26.818Z,100.00
2022-08-27T10:14:58.878Z,100.00
2022-08-27T10:17:25.304Z,100.00
2022-08-27T10:20:25.823Z,100.00
2022-08-27T10:23:05.945Z,99.87
2022-08-27T10:25:44.796Z,99.02
2022-08-27T10:28:38.786Z,97.58
2022-08-27T10:31:08.303Z,96.77
2022-08-27T10:33:39.605Z,95.71
2022-08-27T10:36:12.300Z,94.46
2022-08-27T10:38:44.988Z,93.57
2022-08-27T10:41:29.510Z,92.58
2022-08-27T10:43:55.836Z,91.36
2022-08-27T10:46:50.680Z,88.28
2022-08-27T10:49:26.101Z,89.97
2022-08-27T10:51:58.853Z,90.08
2022-08-27T10:54:54.501Z,85.95
2022-08-27T10:57:55.167Z,84.90
2022-08-27T11:00:25.068Z,86.54
2022-08-27T11:03:10.713Z,84.28
2022-08-27T11:05:46.439Z,83.43
2022-08-27T11:08:15.702Z,84.37
2022-08-27T11:10:54.393Z,83.89
2022-08-27T11:13:27.873Z,82.80
2022-08-27T11:15:56.528Z,82.96
2022-08-27T11:18:51.709Z,82.05
2022-08-27T11:21:25.261Z,79.78
2022-08-27T11:24:00.534Z,78.75
2022-08-27T11:26:31.652Z,79.03
2022-08-27T11:29:01.828Z,78.34
2022-08-27T11:31:36.983Z,77.06
2022-08-27T11:34:20.778Z,75.64
2022-08-27T11:37:04.633Z,76.12
2022-08-27T11:39:59.126Z,75.10
2022-08-27T11:42:39.425Z,75.60
2022-08-27T11:45:15.419Z,74.67
2022-08-27T11:47:54.658Z,74.10
2022-08-27T11:50:22.485Z,73.84
2022-08-27T11:53:26.650Z,73.95
2022-08-27T11:55:55.133Z,71.89
2022-08-27T11:58:21.790Z,71.25
2022-08-27T12:00:48.909Z,70.12
2022-08-27T12:03:21.329Z,72.27
2022-08-27T12:05:53.852Z,71.70
2022-08-27T12:08:23.989Z,70.65
2022-08-27T12:11:09.134Z,69.75
2022-08-27T12:13:56.692Z,70.92
2022-08-27T12:16:46.877Z,71.05
2022-08-27T12:19:31.277Z,69.21
2022-08-27T12:22:07.428Z,69.82
2022-08-27T12:24:56.070Z,71.03
2022-08-27T12:27:24.352Z,70.56
2022-08-27T12:30:18.751Z,68.72
2022-08-27T12:32:48.432Z,69.16
2022-08-27T12:35:16.459Z,67.65
2022-08-27T12:37:48.332Z,68.36
2022-08-27T12:40:30.412Z,67.61
2022-08-27T12:43:17.854Z,67.87
2022-08-27T12:45:56.709Z,67.87
2022-08-27T12:48:36.822Z,67.89
2022-08-27T12:51:08.957Z,67.32
2022-08-27T12:53:47.728Z,65.16
2022-08-27T12:56:33.961Z,64.20
2022-08-27T12:59:07.893Z,64.49
2022-08-27T13:01:56.266Z,66.65
2022-08-27T13:04:28.638Z,66.52
2022-08-27T13:06:55.322Z,65.78
2022-08-27T13:09:38.010Z,67.20
2022-08-27T13:12:14.774Z,66.24
2022-08-27T13:14:41.696Z,66.55
2022-08-27T13:17:18.662Z,66.54
2022-08-27T13:19:51.096Z,66.66
2022-08-27T13:22:23.180Z,66.71
2022-08-27T13:24:53.770Z,68.15
2022-08-27T13:27:32.343Z,67.27
2022-08-27T13:30:22.978Z,67.08
2022-08-27T13:33:00.360Z,65.40
2022-08-27T13:35:26.969Z,64.06
2022-08-27T13:37:54.604Z,66.09
2022-08-27T13:40:37.727Z,66.17
2022-08-27T13:43:09.429Z,66.59
2022-08-27T13:45:38.805Z,63.95
2022-08-27T13:48:08.497Z,65.04
2022-08-27T13:50:36.707Z,65.79
2022-08-27T13:53:25.771Z,65.68
2022-08-27T13:55:54.628Z,67.13
2022-08-27T13:58:28.210Z,66.29
2022-08-27T14:01:06.689Z,66.71
2022-08-27T14:03:38.958Z,65.98
2022-08-27T14:06:05.885Z,65.83
2022-08-27T14:08:38.762Z,65.58
2022-08-27T14:11:09.632Z,64.65
2022-08-27T14:13:46.608Z,64.52
2022-08-27T14:16:23.960Z,65.58
2022-08-27T14:19:01.480Z,65.21
2022-08-27T14:21:27.885Z,63.89
2022-08-27T14:23:54.256Z,64.25
2022-08-27T14:26:20.821Z,65.54
2022-08-27T14:28:47.695Z,64.91
2022-08-27T14:31:14.483Z,64.92
2022-08-27T14:33:41.142Z,65.60
2022-08-27T14:36:08.884Z,65.51
2022-08-27T14:38:40.797Z,65.50
2022-08-27T14:41:08.594Z,64.90
2022-08-27T14:43:35.685Z,64.74
2022-08-27T14:46:02.915Z,65.35
2022-08-27T14:48:32.438Z,65.68
2022-08-27T14:51:02.155Z,64.82
2022-08-27T14:53:28.962Z,66.32
2022-08-27T14:55:58.769Z,64.90
2022-08-27T14:58:25.506Z,65.03
2022-08-27T15:00:52.096Z,64.66
2022-08-27T15:03:19.834Z,64.90
2022-08-27T15:05:46.201Z,66.20
2022-08-27T15:08:15.712Z,65.62
2022-08-27T15:10:42.854Z,66.38
2022-08-27T15:13:11.341Z,65.18
2022-08-27T15:15:38.862Z,65.48
2022-08-27T15:18:05.925Z,66.03
2022-08-27T15:20:32.728Z,66.45
2022-08-27T15:22:59.179Z,66.46
2022-08-27T15:25:25.621Z,66.68
2022-08-27T15:27:52.206Z,65.90
2022-08-27T15:30:25.429Z,65.24
2022-08-27T15:32:51.834Z,65.71
2022-08-27T15:35:23.201Z,66.82
2022-08-27T15:37:49.739Z,66.67
2022-08-27T15:40:18.330Z,66.89
2022-08-27T15:42:46.957Z,66.53
2022-08-27T15:45:14.438Z,67.13
2022-08-27T15:47:40.852Z,67.17
2022-08-27T15:50:08.079Z,66.97
2022-08-27T15:55:14.881Z,67.17
2022-08-27T15:57:41.318Z,67.51
2022-08-27T16:00:08.977Z,67.37
2022-08-27T16:02:35.497Z,67.83
2022-08-27T16:05:02.049Z,68.57
2022-08-27T16:07:28.532Z,68.30
2022-08-27T16:09:54.950Z,68.47
2022-08-27T16:12:22.412Z,68.86
2022-08-27T16:14:53.645Z,68.42
2022-08-27T16:17:21.224Z,69.13
2022-08-27T16:19:47.818Z,68.71
2022-08-27T16:22:16.130Z,68.72
2022-08-27T16:24:42.855Z,68.81
2022-08-27T16:27:09.750Z,69.01
2022-08-27T16:29:37.042Z,69.74
2022-08-27T16:32:03.832Z,69.83
2022-08-27T16:34:31.017Z,69.56
2022-08-27T16:36:57.388Z,70.18
2022-08-27T16:39:23.819Z,70.49
2022-08-27T16:41:50.327Z,70.85
2022-08-27T16:44:17.586Z,71.15
2022-08-27T16:46:44.128Z,70.48
2022-08-27T16:49:29.846Z,70.33
2022-08-27T16:51:56.321Z,70.75
2022-08-27T16:54:22.924Z,71.29
2022-08-27T16:56:49.737Z,71.00
2022-08-27T16:59:16.514Z,71.21
2022-08-27T17:01:43.613Z,71.79
2022-08-27T17:04:18.418Z,71.46
2022-08-27T17:06:51.665Z,71.95
2022-08-27T17:09:19.043Z,71.68
2022-08-27T17:11:50.799Z,71.85
2022-08-27T17:14:17.156Z,71.72
2022-08-27T17:16:43.864Z,72.08
2022-08-27T17:19:16.688Z,72.74
2022-08-27T17:21:47.628Z,72.58
2022-08-27T17:24:14.003Z,72.51
2022-08-27T17:26:40.379Z,72.61
2022-08-27T17:29:07.088Z,72.71
2022-08-27T17:31:36.844Z,72.70
2022-08-27T17:34:04.377Z,72.65
2022-08-27T17:36:32.036Z,72.59
2022-08-27T17:38:59.983Z,73.08
2022-08-27T17:41:33.837Z,72.79
2022-08-27T17:44:04.592Z,73.73
2022-08-27T17:46:31.146Z,73.43
2022-08-27T17:48:57.853Z,73.26
2022-08-27T17:51:24.320Z,73.71
2022-08-27T17:53:57.223Z,73.76
2022-08-27T17:56:26.855Z,73.86
2022-08-27T17:58:54.034Z,73.79
2022-08-27T18:01:28.366Z,74.23
2022-08-27T18:03:56.683Z,74.47
2022-08-27T18:06:23.549Z,75.04
2022-08-27T18:08:49.945Z,74.87
2022-08-27T18:11:16.620Z,74.76
2022-08-27T18:13:43.221Z,75.32
2022-08-27T18:16:09.898Z,75.57
2022-08-27T18:18:36.272Z,76.07
2022-08-27T18:21:02.703Z,76.41
2022-08-27T18:23:29.174Z,76.58
2022-08-27T18:25:56.400Z,76.45
2022-08-27T18:28:23.286Z,77.13
2022-08-27T18:30:50.592Z,76.81
2022-08-27T18:33:17.230Z,77.08
2022-08-27T18:35:43.700Z,77.17
2022-08-27T18:38:10.087Z,77.65
2022-08-27T18:40:45.960Z,77.34
2022-08-27T18:43:14.232Z,76.93
2022-08-27T18:45:40.703Z,77.26
2022-08-27T18:48:21.573Z,77.04
2022-08-27T18:50:56.974Z,77.15
2022-08-27T18:53:24.507Z,76.77
2022-08-27T18:55:51.596Z,77.27
2022-08-27T18:58:18.708Z,77.59
2022-08-27T19:00:48.537Z,77.29
2022-08-27T19:03:21.689Z,77.91
2022-08-27T19:05:48.801Z,78.07
2022-08-27T19:08:22.108Z,78.30
2022-08-27T19:10:48.549Z,77.84
2022-08-27T19:13:14.955Z,78.42
2022-08-27T19:15:46.365Z,78.43
2022-08-27T19:18:12.999Z,78.62
2022-08-27T19:20:39.514Z,78.71
2022-08-27T19:23:05.983Z,77.81
2022-08-27T19:25:32.612Z,77.35
2022-08-27T19:27:59.152Z,75.24
2022-08-27T19:30:25.581Z,73.11
2022-08-27T19:32:54.862Z,72.44
2022-08-27T19:35:24.466Z,71.82
2022-08-27T19:37:53.040Z,72.41
2022-08-27T19:40:21.751Z,72.29
2022-08-27T19:42:48.457Z,71.29
2022-08-27T19:45:14.897Z,71.49
2022-08-27T19:47:41.349Z,71.62
2022-08-27T19:50:08.417Z,72.08
2022-08-27T19:52:35.287Z,72.30
2022-08-27T19:55:15.556Z,72.73
2022-08-27T19:57:43.329Z,73.09
2022-08-27T20:00:12.533Z,73.09
2022-08-27T20:02:39.215Z,72.64
2022-08-27T20:05:17.977Z,73.06
2022-08-27T20:07:45.464Z,73.95
2022-08-27T20:10:11.942Z,74.83
2022-08-27T20:12:38.437Z,74.74
2022-08-27T20:15:06.733Z,75.15
2022-08-27T20:17:34.350Z,74.84
2022-08-27T20:20:01.080Z,75.10
2022-08-27T20:22:27.664Z,75.68
2022-08-27T20:24:54.057Z,75.97
2022-08-27T20:27:20.551Z,75.77
2022-08-27T20:29:47.054Z,76.08
2022-08-27T20:32:13.684Z,76.10
2022-08-27T20:34:40.349Z,76.70
2022-08-27T20:37:07.270Z,76.51
2022-08-27T20:39:34.130Z,77.00
2022-08-27T20:42:00.590Z,76.80
2022-08-27T20:44:27.052Z,76.97
2022-08-27T20:46:59.323Z,76.99
2022-08-27T20:49:27.868Z,77.18
2022-08-27T20:52:02.767Z,77.22
2022-08-27T20:54:31.424Z,77.85
2022-08-27T20:56:58.359Z,77.90
2022-08-27T20:59:43.507Z,78.23
2022-08-27T21:02:12.828Z,77.51
2022-08-27T21:04:47.560Z,77.39
2022-08-27T21:07:15.473Z,77.00
2022-08-27T21:09:55.744Z,76.29
2022-08-27T21:12:23.559Z,76.04
2022-08-27T21:14:50.003Z,75.78
2022-08-27T21:17:21.253Z,75.72
2022-08-27T21:19:47.645Z,76.10
2022-08-27T21:22:14.045Z,76.30
2022-08-27T21:24:40.478Z,76.43
2022-08-27T21:27:07.070Z,76.71
2022-08-27T21:29:33.982Z,76.88
2022-08-27T21:32:00.369Z,77.47
2022-08-27T21:34:28.151Z,77.63
2022-08-27T21:36:54.688Z,77.57
2022-08-27T21:39:21.141Z,77.05
2022-08-27T21:41:48.071Z,76.71
2022-08-27T21:44:14.585Z,76.99
2022-08-27T21:46:41.196Z,76.84
2022-08-27T21:49:08.012Z,76.79
2022-08-27T21:51:34.359Z,76.47
2022-08-27T21:54:00.819Z,76.74
2022-08-27T21:56:27.736Z,75.91
2022-08-27T21:58:54.136Z,75.83
2022-08-27T22:01:20.678Z,75.82
2022-08-27T22:03:50.654Z,75.66
2022-08-27T22:06:18.266Z,75.97
2022-08-27T22:08:44.961Z,76.19
2022-08-27T22:11:12.129Z,76.48
2022-08-27T22:13:39.137Z,76.45
2022-08-27T22:16:05.755Z,76.65
2022-08-27T22:18:32.389Z,76.64
2022-08-27T22:20:58.845Z,76.12
2022-08-27T22:23:25.877Z,76.25
2022-08-27T22:25:52.613Z,76.63
2022-08-27T22:28:19.109Z,76.72
2022-08-27T22:30:45.576Z,76.16
2022-08-27T22:33:13.228Z,75.91
2022-08-27T22:35:40.037Z,75.92
2022-08-27T22:38:07.148Z,75.87
2022-08-27T22:40:35.272Z,76.33
2022-08-27T22:43:01.935Z,76.76
2022-08-27T22:45:29.028Z,75.67
2022-08-27T22:47:55.830Z,75.19
2022-08-27T22:50:22.837Z,74.51
2022-08-27T22:52:50.101Z,74.24
2022-08-27T22:55:19.316Z,74.51
2022-08-27T22:57:51.337Z,74.50
2022-08-27T23:00:27.257Z,74.58
2022-08-27T23:02:53.986Z,73.83
2022-08-27T23:05:21.457Z,74.11
2022-08-27T23:07:48.824Z,73.87
2022-08-27T23:10:17.303Z,74.39
2022-08-27T23:12:45.908Z,74.58
2022-08-27T23:15:14.865Z,74.26
2022-08-27T23:17:41.244Z,74.31
2022-08-27T23:20:09.698Z,74.55
2022-08-27T23:22:37.446Z,75.12
2022-08-27T23:25:23.999Z,75.59
2022-08-27T23:27:50.374Z,75.40
2022-08-27T23:30:18.224Z,75.30
2022-08-27T23:32:48.862Z,75.12
2022-08-27T23:35:22.496Z,74.94
2022-08-27T23:37:50.291Z,75.27
2022-08-27T23:40:18.415Z,75.54
2022-08-27T23:42:45.877Z,75.76
2022-08-27T23:45:17.088Z,75.42
2022-08-27T23:47:43.516Z,75.65
2022-08-27T23:50:11.497Z,75.36
2022-08-27T23:52:39.209Z,75.52
2022-08-27T23:55:08.200Z,75.66
2022-08-27T23:57:34.643Z,76.03
